Portada
METAR-TAF:

METAR-TAF

Aeropuertos :

Jönköping, Suecia

latitud: 57-46N, longitud: 014-05E, altitud: 226 m

Observación

El informe se hizo hace 20 minutos, a las 13:50 UTC
Viento 9 kt del sur
Temperatura 12°C
Humedad 94%
Presión 999 hPa
Visibilidad: 4200 m
llovizna ligera

METAR: ESGJ 251350Z AUTO 18009KT 4200 -DZ VV013 12/11 Q0999

Hora: 15:10 (14:10 UTC)


TAF: falta

Observaciones y pronósticos meteorológicos de más de 4000 aeropuertos (mensajes METAR y TAF).

Los puntos amarillos y rojos representan las estaciones disponibles.

Ponga el ratón en el punto deseado para ver el nombre de la estación.

Haga clic para ver las observaciones y los pronósticos meteorológicos.

Para cambiar el mapa : haga clic en los botones verdes con una cruz de color negro para hacer un zoom, en el botón verde con un guión para alejar o en las flechas verdes para mapas adyacentes.


METAR-TAF: